Time;durP1;ratioP1;P1;durP2;ratioP2;P2;SDS_P1;SDS_P2;PMS_P1;PMS_P2;Temp;Humidity;BMP_temperature;BMP_pressure;BME280_temperature;BME280_humidity;BME280_pressure;Samples;Min_cycle;Max_cycle;Signal;HPM_P1;HPM_P2
2023/08/23 00:01:03;;;;;;;1.20;1.10;;;;;;;21.62;88.50;98921.78;4154732;28;20218;-46
2023/08/23 00:03:24;;;;;;;1.05;0.95;;;;;;;21.54;88.96;98925.28;4169090;28;20216;-48
2023/08/23 00:05:26;;;;;;;0.95;0.95;;;;;;;21.49;89.02;98920.66;4183934;28;20227;-46
2023/08/23 00:07:27;;;;;;;1.25;1.15;;;;;;;21.51;89.25;98923.16;4173489;28;20709;-47
2023/08/23 00:09:30;;;;;;;1.52;1.30;;;;;;;21.52;89.36;98917.25;4168962;28;20269;-46
2023/08/23 00:11:32;;;;;;;1.17;1.10;;;;;;;21.48;89.34;98915.38;4165140;28;20208;-46
2023/08/23 00:13:34;;;;;;;1.80;1.70;;;;;;;21.52;90.01;98908.06;4167347;28;20211;-47
2023/08/23 00:15:41;;;;;;;0.90;0.90;;;;;;;21.37;89.63;98911.19;4166700;28;20228;-46
2023/08/23 00:17:43;;;;;;;0.95;0.95;;;;;;;21.35;90.28;98907.88;4185101;28;20297;-47
2023/08/23 00:19:46;;;;;;;1.23;1.13;;;;;;;21.37;90.35;98919.53;4185129;28;20235;-47
2023/08/23 00:21:48;;;;;;;1.10;1.00;;;;;;;21.36;90.30;98915.09;4153372;28;20296;-47
2023/08/23 00:23:49;;;;;;;1.42;0.85;;;;;;;21.35;90.44;98919.84;4169459;28;20202;-46
2023/08/23 00:25:51;;;;;;;0.68;0.68;;;;;;;21.37;90.42;98913.97;4172279;28;20239;-46
2023/08/23 00:27:53;;;;;;;0.75;0.75;;;;;;;21.38;90.14;98915.63;4159394;28;20692;-45
2023/08/23 00:30:14;;;;;;;2.10;1.20;;;;;;;21.35;90.14;98916.22;4157577;28;20625;-46
2023/08/23 00:32:15;;;;;;;1.00;0.70;;;;;;;21.28;90.55;98921.38;4171022;28;20216;-47
2023/08/23 00:34:19;;;;;;;1.70;1.33;;;;;;;21.24;90.43;98920.38;4176536;28;20630;-47
2023/08/23 00:36:21;;;;;;;0.88;0.88;;;;;;;21.23;90.80;98918.72;4177107;28;20224;-47
2023/08/23 00:38:22;;;;;;;0.90;0.82;;;;;;;21.18;90.52;98924.38;4169951;28;20210;-46
2023/08/23 00:40:24;;;;;;;7.50;1.92;;;;;;;21.18;90.69;98913.25;4171250;28;20203;-46
2023/08/23 00:42:26;;;;;;;1.02;0.93;;;;;;;21.15;90.88;98916.63;4170922;28;20215;-46
2023/08/23 00:44:28;;;;;;;1.60;1.20;;;;;;;21.18;90.63;98910.47;4169977;28;20235;-47
2023/08/23 00:46:30;;;;;;;1.30;1.20;;;;;;;21.12;90.85;98911.69;4170201;28;20676;-47
2023/08/23 00:48:32;;;;;;;1.00;1.00;;;;;;;21.07;91.07;98917.34;4169521;28;20204;-46
2023/08/23 00:50:34;;;;;;;2.03;1.30;;;;;;;21.07;91.27;98915.41;4169127;28;20569;-47
2023/08/23 00:52:36;;;;;;;2.58;2.20;;;;;;;21.05;91.68;98916.84;4152151;28;20212;-47
2023/08/23 00:54:54;;;;;;;1.10;1.10;;;;;;;21.10;91.31;98903.66;4170007;28;20957;-46
2023/08/23 00:56:59;;;;;;;2.20;1.50;;;;;;;21.02;91.60;98906.31;4158505;28;20203;-46
2023/08/23 00:59:01;;;;;;;1.50;1.25;;;;;;;20.82;91.34;98912.22;4167722;28;20565;-46
2023/08/23 01:01:03;;;;;;;1.67;1.10;;;;;;;20.84;92.19;98904.44;4155763;28;20227;-47
2023/08/23 01:03:05;;;;;;;1.75;1.05;;;;;;;20.91;92.24;98907.66;4169614;28;20210;-45
2023/08/23 01:05:07;;;;;;;1.00;1.00;;;;;;;20.81;92.38;98916.16;4175473;28;20227;-47
2023/08/23 01:07:14;;;;;;;0.80;0.80;;;;;;;20.83;93.12;98914.72;4173133;28;20690;-46
2023/08/23 01:09:27;;;;;;;0.98;0.98;;;;;;;20.77;92.50;98904.81;4188832;28;20222;-46
2023/08/23 01:11:43;;;;;;;3.33;1.75;;;;;;;20.80;92.97;98920.06;4186524;28;20222;-47
2023/08/23 01:13:59;;;;;;;0.88;0.88;;;;;;;20.79;93.23;98918.44;4186654;28;20207;-46
2023/08/23 01:16:01;;;;;;;1.63;1.15;;;;;;;20.81;92.98;98910.59;4170703;28;20273;-47
2023/08/23 01:18:03;;;;;;;1.30;1.30;;;;;;;20.76;92.63;98924.59;4175159;28;20204;-46
2023/08/23 01:20:05;;;;;;;0.90;0.90;;;;;;;20.78;92.92;98920.38;4169883;28;20677;-46
2023/08/23 01:22:10;;;;;;;0.90;0.90;;;;;;;20.74;92.68;98910.16;4172102;28;20219;-47
2023/08/23 01:24:12;;;;;;;1.90;1.42;;;;;;;20.72;92.79;98918.00;4171179;28;20665;-47
2023/08/23 01:26:14;;;;;;;0.82;0.82;;;;;;;20.75;92.86;98922.94;4169423;28;20214;-47
2023/08/23 01:28:16;;;;;;;1.58;1.48;;;;;;;20.73;93.03;98917.69;4186054;28;20592;-47
2023/08/23 01:30:18;;;;;;;1.50;1.40;;;;;;;20.73;93.00;98919.66;4170703;28;20723;-46
2023/08/23 01:32:46;;;;;;;1.10;1.00;;;;;;;20.68;92.90;98916.94;4176510;28;20287;-46
2023/08/23 01:34:54;;;;;;;1.25;1.10;;;;;;;20.61;92.27;98924.88;4137230;28;20635;-47
2023/08/23 01:36:56;;;;;;;1.20;1.08;;;;;;;20.58;92.62;98929.06;4151964;28;20258;-47
2023/08/23 01:38:58;;;;;;;1.15;1.05;;;;;;;20.60;92.87;98926.84;4169724;28;20213;-47
2023/08/23 01:41:00;;;;;;;2.85;1.45;;;;;;;20.60;93.02;98920.44;4173393;28;20690;-46
2023/08/23 01:43:02;;;;;;;1.08;1.05;;;;;;;20.60;93.13;98926.00;4186755;28;20235;-47
2023/08/23 01:45:05;;;;;;;1.25;1.15;;;;;;;20.61;93.08;98924.88;4168745;28;20250;-46
2023/08/23 01:47:06;;;;;;;1.65;1.55;;;;;;;20.50;92.61;98931.75;4170385;28;20204;-47
2023/08/23 01:49:09;;;;;;;1.55;1.38;;;;;;;20.55;93.10;98924.13;4168547;28;20215;-47
2023/08/23 01:51:11;;;;;;;2.15;1.08;;;;;;;20.52;92.86;98921.13;4168433;28;20211;-47
2023/08/23 01:53:13;;;;;;;0.80;0.80;;;;;;;20.42;93.40;98912.97;4151445;28;20714;-47
2023/08/23 01:55:17;;;;;;;2.33;2.05;;;;;;;20.41;93.78;98920.50;4171523;28;20594;-47
2023/08/23 01:57:19;;;;;;;1.25;1.20;;;;;;;20.31;93.83;98912.31;4170766;28;20302;-47
2023/08/23 01:59:21;;;;;;;1.35;1.25;;;;;;;20.42;93.70;98907.41;4186899;28;20221;-47
2023/08/23 02:01:23;;;;;;;1.42;1.30;;;;;;;20.36;93.77;98903.03;4170689;28;20673;-48
2023/08/23 02:03:25;;;;;;;2.25;1.20;;;;;;;20.03;96.75;98902.16;4170294;28;20851;-47
2023/08/23 02:05:29;;;;;;;1.40;1.30;;;;;;;19.99;97.11;98911.41;4162594;28;20783;-48
2023/08/23 02:07:31;;;;;;;1.92;1.20;;;;;;;19.76;98.26;98898.41;4170851;28;20572;-47
2023/08/23 02:09:33;;;;;;;2.40;2.20;;;;;;;19.55;100.00;98899.84;4167286;28;20239;-46
2023/08/23 02:11:36;;;;;;;1.38;1.27;;;;;;;19.65;99.76;98903.28;4169469;28;20214;-47
2023/08/23 02:13:38;;;;;;;1.15;0.90;;;;;;;19.66;100.00;98906.91;4175434;28;20214;-46
2023/08/23 02:15:40;;;;;;;1.00;1.00;;;;;;;19.68;99.51;98896.31;4178449;28;20220;-46
2023/08/23 02:17:42;;;;;;;0.90;0.90;;;;;;;19.72;98.93;98897.38;4170177;28;20564;-47
2023/08/23 02:19:44;;;;;;;5.25;1.35;;;;;;;19.74;97.99;98890.41;4177419;28;20920;-46
2023/08/23 02:21:46;;;;;;;0.90;0.90;;;;;;;19.74;97.64;98895.13;4177381;28;20214;-47
2023/08/23 02:23:47;;;;;;;1.25;1.15;;;;;;;19.90;97.01;98893.78;4170068;28;20211;-46
2023/08/23 02:25:50;;;;;;;1.42;1.33;;;;;;;19.86;96.63;98898.28;4152285;28;20322;-46
2023/08/23 02:27:52;;;;;;;0.70;0.70;;;;;;;19.79;97.30;98895.06;4176586;28;20605;-47
2023/08/23 02:29:53;;;;;;;1.75;1.27;;;;;;;19.74;96.97;98897.91;4153051;28;20212;-47
2023/08/23 02:31:55;;;;;;;1.13;1.13;;;;;;;19.80;97.45;98899.47;4170663;28;20208;-47
2023/08/23 02:33:57;;;;;;;1.40;1.30;;;;;;;19.87;97.06;98894.38;4171261;28;21762;-47
2023/08/23 02:35:59;;;;;;;1.95;1.85;;;;;;;19.84;97.11;98900.53;4158839;28;20302;-46
2023/08/23 02:38:01;;;;;;;1.13;1.13;;;;;;;19.81;97.25;98901.13;4184655;28;20311;-47
2023/08/23 02:40:03;;;;;;;1.33;1.23;;;;;;;19.74;96.96;98900.69;4174835;28;20217;-46
2023/08/23 02:42:05;;;;;;;1.33;1.20;;;;;;;19.71;96.62;98906.84;4167482;28;20912;-47
2023/08/23 02:44:07;;;;;;;0.98;0.98;;;;;;;19.69;96.95;98903.53;4167869;28;20741;-47
2023/08/23 02:46:09;;;;;;;5.78;1.83;;;;;;;19.79;96.54;98898.63;4152710;28;20215;-45
2023/08/23 02:48:11;;;;;;;1.52;0.85;;;;;;;19.88;95.51;98891.31;4167348;28;20212;-46
2023/08/23 02:50:13;;;;;;;2.17;1.35;;;;;;;19.57;98.03;98901.19;4169227;28;20542;-47
2023/08/23 02:52:15;;;;;;;0.90;0.90;;;;;;;19.63;97.77;98893.59;4185541;28;20214;-47
2023/08/23 02:54:16;;;;;;;1.25;1.17;;;;;;;19.68;97.12;98901.88;4155247;28;20206;-47
2023/08/23 02:56:18;;;;;;;8.40;1.15;;;;;;;19.57;97.12;98905.94;4152323;28;20221;-46
2023/08/23 02:58:20;;;;;;;1.27;1.17;;;;;;;19.62;97.20;98908.63;4175169;28;20212;-47
2023/08/23 03:00:22;;;;;;;1.30;1.20;;;;;;;19.64;97.60;98911.94;4178071;28;20200;-46
2023/08/23 03:02:23;;;;;;;1.65;1.45;;;;;;;19.56;97.25;98905.09;4186234;28;20210;-47
2023/08/23 03:04:25;;;;;;;1.48;1.38;;;;;;;19.53;97.67;98910.41;4182395;28;20227;-46
2023/08/23 03:06:27;;;;;;;1.30;1.20;;;;;;;19.55;97.85;98908.16;4167871;28;20211;-46
2023/08/23 03:08:29;;;;;;;7.68;1.25;;;;;;;19.57;97.69;98903.97;4175195;28;20200;-47
2023/08/23 03:10:31;;;;;;;1.00;1.00;;;;;;;19.56;97.17;98895.94;4169662;28;20211;-47
2023/08/23 03:12:32;;;;;;;1.02;0.93;;;;;;;19.54;96.93;98901.81;4168562;28;20208;-46
2023/08/23 03:14:34;;;;;;;1.70;1.60;;;;;;;19.54;96.61;98895.41;4186952;28;20227;-46
2023/08/23 03:16:36;;;;;;;1.70;1.30;;;;;;;19.57;96.36;98889.28;4169554;28;20259;-47
2023/08/23 03:18:39;;;;;;;2.00;1.90;;;;;;;19.55;96.11;98877.63;4183929;28;20226;-47
2023/08/23 03:20:43;;;;;;;1.45;1.15;;;;;;;19.48;96.28;98882.72;4167051;28;20208;-46
2023/08/23 03:22:45;;;;;;;2.10;1.05;;;;;;;19.45;96.38;98892.47;4166478;28;20246;-47
2023/08/23 03:24:47;;;;;;;1.40;1.30;;;;;;;19.45;96.48;98886.09;4167029;28;20741;-47
2023/08/23 03:26:49;;;;;;;2.00;1.30;;;;;;;19.45;96.42;98892.47;4185362;28;20631;-47
2023/08/23 03:28:51;;;;;;;1.85;1.55;;;;;;;19.47;96.35;98889.41;4167307;28;20215;-46
2023/08/23 03:30:53;;;;;;;1.08;1.08;;;;;;;19.38;95.54;98888.41;4168914;28;20215;-47
2023/08/23 03:32:55;;;;;;;4.07;0.90;;;;;;;19.39;96.33;98892.84;4182418;28;20200;-47
2023/08/23 03:34:57;;;;;;;0.95;0.93;;;;;;;19.43;96.25;98893.88;4166268;28;20219;-47
2023/08/23 03:37:00;;;;;;;1.73;1.60;;;;;;;19.47;95.96;98892.16;4166404;28;20228;-47
2023/08/23 03:39:06;;;;;;;1.02;1.02;;;;;;;19.36;96.00;98879.53;4185536;28;20318;-46
2023/08/23 03:41:13;;;;;;;1.20;1.13;;;;;;;19.32;96.42;98881.28;4166933;28;20200;-45
2023/08/23 03:43:14;;;;;;;1.50;1.40;;;;;;;19.29;96.61;98887.41;4168109;28;20203;-45
2023/08/23 03:45:17;;;;;;;1.13;1.13;;;;;;;19.26;96.52;98888.00;4157711;28;20635;-47
2023/08/23 03:47:19;;;;;;;1.45;1.33;;;;;;;19.22;96.57;98889.72;4168991;28;20218;-47
2023/08/23 03:49:21;;;;;;;1.95;1.70;;;;;;;19.25;96.75;98883.59;4170202;28;20219;-46
2023/08/23 03:51:23;;;;;;;1.15;1.15;;;;;;;19.25;96.91;98880.81;4167859;28;20219;-45
2023/08/23 03:53:28;;;;;;;3.17;1.88;;;;;;;19.20;97.03;98883.66;4185103;28;20212;-45
2023/08/23 03:55:30;;;;;;;1.73;1.63;;;;;;;19.17;96.75;98887.00;4181744;28;20721;-47
2023/08/23 03:57:32;;;;;;;3.53;1.27;;;;;;;19.19;97.07;98884.75;4165609;28;20224;-47
2023/08/23 03:59:34;;;;;;;1.52;1.13;;;;;;;19.17;96.95;98889.78;4164566;28;20201;-47
2023/08/23 04:01:35;;;;;;;1.30;1.20;;;;;;;19.12;97.10;98884.28;4170334;28;20216;-46
2023/08/23 04:03:37;;;;;;;1.23;1.15;;;;;;;19.11;97.20;98882.63;4170190;28;20531;-47
2023/08/23 04:05:39;;;;;;;1.25;0.88;;;;;;;19.10;97.26;98883.72;4177436;28;20692;-46
2023/08/23 04:07:41;;;;;;;1.67;1.25;;;;;;;19.10;97.36;98889.28;4168785;28;20303;-45
2023/08/23 04:09:43;;;;;;;8.10;1.80;;;;;;;19.04;97.25;98882.16;4169474;28;20204;-45
2023/08/23 04:11:46;;;;;;;1.33;1.20;;;;;;;19.09;97.16;98882.09;4172270;28;20213;-45
2023/08/23 04:13:48;;;;;;;1.42;1.17;;;;;;;19.03;97.16;98883.25;4177512;28;20677;-44
2023/08/23 04:15:49;;;;;;;4.20;1.13;;;;;;;19.01;97.38;98885.50;4155165;28;20840;-45
2023/08/23 04:17:51;;;;;;;2.50;1.60;;;;;;;19.01;97.06;98888.28;4170489;28;20227;-44
2023/08/23 04:19:53;;;;;;;1.20;1.10;;;;;;;19.02;97.12;98892.72;4186307;28;20254;-44
2023/08/23 04:21:55;;;;;;;1.80;1.70;;;;;;;18.99;96.87;98893.31;4189275;28;20209;-44
2023/08/23 04:23:57;;;;;;;1.42;1.20;;;;;;;19.03;96.87;98888.81;4171185;28;20205;-44
2023/08/23 04:25:59;;;;;;;0.80;0.80;;;;;;;18.98;96.90;98877.78;4179373;28;20236;-44
2023/08/23 04:28:00;;;;;;;1.33;1.33;;;;;;;18.57;100.00;98884.91;4171512;28;20358;-44
2023/08/23 04:30:06;;;;;;;1.35;1.25;;;;;;;18.67;100.00;98885.63;4171527;28;20219;-44
2023/08/23 04:32:11;;;;;;;1.27;1.05;;;;;;;18.60;100.00;98884.31;4153653;28;20215;-44
2023/08/23 04:34:15;;;;;;;1.48;1.38;;;;;;;18.60;100.00;98887.09;4170772;28;20204;-44
2023/08/23 04:36:23;;;;;;;3.40;1.05;;;;;;;18.70;100.00;98885.03;4186973;28;20607;-44
2023/08/23 04:38:25;;;;;;;4.18;2.45;;;;;;;18.67;99.82;98890.34;4167698;28;20215;-43
2023/08/23 04:40:27;;;;;;;2.20;1.55;;;;;;;18.60;100.00;98884.31;4174685;28;20215;-43
2023/08/23 04:42:33;;;;;;;2.00;1.63;;;;;;;18.54;100.00;98893.78;4155466;28;20216;-44
2023/08/23 04:44:35;;;;;;;2.97;1.73;;;;;;;18.53;100.00;98895.72;4183779;28;20249;-44
2023/08/23 04:46:37;;;;;;;1.30;1.30;;;;;;;18.63;100.00;98894.81;4186187;28;20837;-44
2023/08/23 04:48:38;;;;;;;2.13;1.98;;;;;;;18.64;100.00;98886.19;4181461;28;20214;-43
2023/08/23 04:50:40;;;;;;;1.02;1.02;;;;;;;18.64;100.00;98893.72;4174656;28;20216;-45
2023/08/23 04:52:42;;;;;;;2.47;1.40;;;;;;;18.69;99.92;98893.63;4150509;28;20264;-46
2023/08/23 04:54:47;;;;;;;1.95;1.20;;;;;;;18.63;99.58;98900.34;4167744;28;20224;-45
2023/08/23 04:56:49;;;;;;;1.08;1.05;;;;;;;18.63;99.73;98894.81;4184711;28;20227;-45
2023/08/23 04:58:51;;;;;;;1.17;1.17;;;;;;;18.64;99.39;98899.25;4169844;28;20645;-45
2023/08/23 05:00:58;;;;;;;1.65;1.00;;;;;;;18.64;99.51;98902.03;4157637;28;20216;-44
2023/08/23 05:03:00;;;;;;;1.55;1.50;;;;;;;18.70;98.94;98893.34;4188253;28;20203;-44
2023/08/23 05:05:03;;;;;;;1.13;1.13;;;;;;;18.61;99.15;98894.28;4173460;28;20652;-45
2023/08/23 05:07:05;;;;;;;1.58;1.48;;;;;;;18.53;99.31;98901.28;4180632;28;20211;-44
2023/08/23 05:09:06;;;;;;;1.88;1.20;;;;;;;18.55;99.92;98892.66;4157068;28;20223;-45
2023/08/23 05:11:08;;;;;;;1.60;1.50;;;;;;;18.57;99.80;98902.34;4188255;28;20241;-45
2023/08/23 05:13:10;;;;;;;1.20;1.20;;;;;;;18.60;99.67;98896.25;4184670;28;20561;-45
2023/08/23 05:15:12;;;;;;;0.80;0.80;;;;;;;18.54;99.73;98896.56;4175446;28;20236;-45
2023/08/23 05:17:14;;;;;;;1.38;1.27;;;;;;;18.60;99.90;98887.09;4169450;28;20259;-44
2023/08/23 05:19:16;;;;;;;2.25;1.67;;;;;;;18.57;100.00;98898.78;4181492;28;20207;-45
2023/08/23 05:21:18;;;;;;;3.40;2.15;;;;;;;18.59;100.00;98902.88;4168153;28;20607;-45
2023/08/23 05:23:24;;;;;;;8.75;1.15;;;;;;;18.61;100.00;98905.38;4167460;28;20666;-45
2023/08/23 05:25:26;;;;;;;1.10;0.70;;;;;;;18.72;100.00;98904.16;4168103;28;20234;-45
2023/08/23 05:27:27;;;;;;;1.38;1.27;;;;;;;18.78;100.00;98902.97;4170301;28;20247;-44
2023/08/23 05:29:29;;;;;;;2.15;1.30;;;;;;;18.77;100.00;98906.88;4168768;28;20200;-47
2023/08/23 05:31:31;;;;;;;1.02;0.90;;;;;;;18.82;100.00;98909.56;4167995;28;20219;-45
2023/08/23 05:33:33;;;;;;;1.48;1.38;;;;;;;18.92;100.00;98909.47;4168980;28;20211;-46
2023/08/23 05:35:35;;;;;;;1.15;1.08;;;;;;;18.98;100.00;98902.75;4180481;28;20235;-44
2023/08/23 05:37:37;;;;;;;1.10;1.10;;;;;;;19.08;100.00;98908.19;4184417;28;20867;-46
2023/08/23 05:39:39;;;;;;;2.92;2.47;;;;;;;19.17;100.00;98911.97;4167498;28;20219;-45
2023/08/23 05:41:41;;;;;;;0.90;0.90;;;;;;;19.29;100.00;98909.63;4157208;28;20216;-46
2023/08/23 05:43:43;;;;;;;1.17;1.13;;;;;;;19.35;100.00;98919.53;4151541;28;20211;-47
2023/08/23 05:45:45;;;;;;;1.25;1.20;;;;;;;19.41;100.00;98918.34;4152838;28;20773;-47
2023/08/23 05:47:46;;;;;;;2.67;1.60;;;;;;;19.45;100.00;98914.66;4160811;28;20216;-47
2023/08/23 05:49:49;;;;;;;4.03;3.25;;;;;;;19.36;100.00;98910.06;4159569;28;20209;-45
2023/08/23 05:51:53;;;;;;;1.67;1.55;;;;;;;19.56;100.00;98918.97;4185843;28;20312;-45
2023/08/23 05:53:55;;;;;;;1.60;1.50;;;;;;;19.67;100.00;98916.88;4155188;28;20268;-46
2023/08/23 05:56:00;;;;;;;1.48;1.38;;;;;;;19.81;100.00;98928.91;4168785;28;20259;-46
2023/08/23 05:58:02;;;;;;;1.30;1.20;;;;;;;19.81;100.00;98918.63;4165709;28;20262;-44
2023/08/23 06:00:07;;;;;;;2.38;2.17;;;;;;;19.86;100.00;98912.16;4169116;28;20265;-46
2023/08/23 06:02:09;;;;;;;0.85;0.85;;;;;;;20.04;100.00;98914.13;4170462;28;20219;-46
2023/08/23 06:04:14;;;;;;;1.75;1.50;;;;;;;20.09;99.87;98920.44;4169912;28;20641;-47
2023/08/23 06:06:16;;;;;;;1.48;1.38;;;;;;;20.20;100.00;98919.19;4172313;28;20735;-44
2023/08/23 06:08:18;;;;;;;4.78;1.52;;;;;;;20.32;99.31;98918.69;4152515;28;20204;-46
2023/08/23 06:10:20;;;;;;;1.27;1.20;;;;;;;20.40;98.17;98915.22;4158244;28;20697;-46
2023/08/23 06:12:24;;;;;;;7.07;2.63;;;;;;;20.23;98.63;98920.50;4185357;28;20788;-45
2023/08/23 06:14:29;;;;;;;3.50;2.33;;;;;;;20.34;99.64;98927.56;4171559;28;20251;-47
2023/08/23 06:16:31;;;;;;;1.45;1.35;;;;;;;20.47;99.18;98932.34;4183801;28;20202;-45
2023/08/23 06:18:33;;;;;;;1.80;1.70;;;;;;;20.26;98.13;98936.59;4157945;28;20310;-46
2023/08/23 06:20:35;;;;;;;1.83;1.73;;;;;;;20.31;99.72;98928.19;4153308;28;20208;-49
2023/08/23 06:22:37;;;;;;;1.45;1.35;;;;;;;20.36;100.00;98925.28;4184112;28;20199;-45
2023/08/23 06:24:39;;;;;;;1.85;1.33;;;;;;;20.65;98.92;98923.13;4167193;28;20302;-46
2023/08/23 06:26:43;;;;;;;1.38;1.27;;;;;;;20.55;96.74;98924.13;4169129;28;20658;-49
2023/08/23 06:28:45;;;;;;;1.85;1.50;;;;;;;20.51;96.79;98919.50;4169770;28;20231;-44
2023/08/23 06:30:47;;;;;;;2.42;1.67;;;;;;;20.37;99.31;98921.41;4178632;28;20580;-45
2023/08/23 06:32:49;;;;;;;2.38;2.17;;;;;;;20.77;99.00;98920.69;4179421;28;20207;-44
2023/08/23 06:34:53;;;;;;;1.30;1.08;;;;;;;20.82;95.05;98926.16;4169201;28;20239;-46
2023/08/23 06:36:54;;;;;;;1.70;1.60;;;;;;;20.70;96.39;98923.06;4169455;28;20211;-46
2023/08/23 06:38:56;;;;;;;2.50;2.00;;;;;;;20.70;95.49;98923.06;4172302;28;20204;-45
2023/08/23 06:40:58;;;;;;;1.30;1.17;;;;;;;20.52;95.07;98932.25;4168765;28;20203;-45
2023/08/23 06:43:21;;;;;;;1.83;1.00;;;;;;;20.87;96.83;98937.19;4148710;28;20694;-45
2023/08/23 06:45:26;;;;;;;1.77;1.58;;;;;;;21.14;93.30;98943.66;4162042;28;20289;-45
2023/08/23 06:47:28;;;;;;;1.00;1.00;;;;;;;21.09;93.08;98940.97;4164956;28;20203;-44
2023/08/23 06:49:30;;;;;;;0.98;0.95;;;;;;;21.25;93.54;98944.28;4167861;28;20262;-45
2023/08/23 06:51:38;;;;;;;12.93;1.67;;;;;;;21.89;91.96;98938.47;4148465;28;20204;-46
2023/08/23 06:53:49;;;;;;;1.10;1.00;;;;;;;22.93;85.15;98948.19;4160932;28;20210;-44
2023/08/23 06:55:51;;;;;;;0.85;0.85;;;;;;;23.06;84.90;98948.13;4180102;28;20246;-45
2023/08/23 06:57:57;;;;;;;12.52;2.10;;;;;;;23.40;82.27;98947.47;4183670;28;20267;-47
2023/08/23 07:00:00;;;;;;;1.73;1.63;;;;;;;23.96;78.98;98944.72;4168098;28;20289;-44
2023/08/23 07:02:03;;;;;;;1.42;1.33;;;;;;;23.54;79.45;98953.78;4162974;28;20207;-44
2023/08/23 07:04:07;;;;;;;1.08;1.08;;;;;;;23.50;81.07;98952.78;4171866;28;20203;-44
2023/08/23 07:06:13;;;;;;;2.65;1.40;;;;;;;23.83;79.19;98944.50;4150826;28;20329;-44
2023/08/23 07:08:15;;;;;;;1.00;1.00;;;;;;;23.65;78.74;98941.16;4185223;28;20207;-44
2023/08/23 07:10:17;;;;;;;0.95;0.88;;;;;;;23.46;79.42;98948.97;4183592;28;20257;-45
2023/08/23 07:12:29;;;;;;;1.00;0.88;;;;;;;23.98;79.23;98948.00;4167137;28;20293;-45
2023/08/23 07:14:31;;;;;;;0.88;0.85;;;;;;;23.92;78.31;98949.31;4180519;28;20230;-45
2023/08/23 07:16:32;;;;;;;1.30;1.20;;;;;;;24.10;78.46;98952.63;4167844;28;20630;-44
2023/08/23 07:18:34;;;;;;;0.90;0.90;;;;;;;24.32;78.38;98938.50;4162738;28;20262;-44
2023/08/23 07:20:36;;;;;;;0.85;0.85;;;;;;;24.76;75.77;98949.38;4166746;28;20237;-45
2023/08/23 07:22:38;;;;;;;1.92;1.10;;;;;;;25.04;76.29;98942.22;4164308;28;20203;-44
2023/08/23 07:24:40;;;;;;;0.85;0.85;;;;;;;25.39;72.54;98957.78;4164918;28;20234;-44
2023/08/23 07:26:42;;;;;;;0.45;0.45;;;;;;;25.69;71.19;98955.84;4152255;28;20343;-44
2023/08/23 07:28:44;;;;;;;1.95;1.70;;;;;;;24.62;74.96;98947.88;4182261;28;20199;-45
2023/08/23 07:30:49;;;;;;;0.90;0.90;;;;;;;25.05;72.85;98948.66;4162680;28;20215;-45
2023/08/23 07:32:51;;;;;;;1.67;1.38;;;;;;;25.49;72.45;98957.44;4164183;28;21936;-45
2023/08/23 07:34:53;;;;;;;1.23;1.13;;;;;;;25.67;70.78;98958.16;4165533;28;20675;-44
2023/08/23 07:36:55;;;;;;;0.70;0.70;;;;;;;25.17;71.89;98949.59;4167006;28;20207;-46
2023/08/23 07:38:56;;;;;;;1.10;1.00;;;;;;;25.25;70.83;98950.75;4155202;28;20255;-43
2023/08/23 07:41:00;;;;;;;13.57;0.90;;;;;;;24.97;69.13;98950.31;4168057;28;20215;-46
2023/08/23 07:43:02;;;;;;;1.05;0.98;;;;;;;25.01;68.92;98956.91;4166640;28;20207;-45
2023/08/23 07:45:04;;;;;;;1.35;0.98;;;;;;;24.32;71.79;98949.69;4169446;28;20648;-45
2023/08/23 07:47:06;;;;;;;2.40;1.13;;;;;;;23.67;74.08;98960.06;4172115;28;20635;-45
2023/08/23 07:49:08;;;;;;;0.88;0.77;;;;;;;24.28;74.82;98954.31;4170399;28;20618;-45
2023/08/23 07:51:10;;;;;;;1.77;0.80;;;;;;;24.18;73.10;98960.22;4171456;28;20203;-44
2023/08/23 07:53:12;;;;;;;0.80;0.80;;;;;;;23.96;75.68;98950.31;4187833;28;20221;-44
2023/08/23 07:55:14;;;;;;;1.80;1.20;;;;;;;24.03;76.68;98951.47;4171213;28;20224;-44
2023/08/23 07:57:15;;;;;;;1.15;1.05;;;;;;;24.19;77.16;98950.66;4177466;28;20214;-44
2023/08/23 07:59:17;;;;;;;0.98;0.98;;;;;;;24.89;73.15;98950.31;4155012;28;20219;-44
2023/08/23 08:01:19;;;;;;;1.20;1.05;;;;;;;26.08;69.24;98952.66;4169042;28;20206;-44
2023/08/23 08:03:21;;;;;;;0.85;0.70;;;;;;;26.56;67.33;98941.75;4168240;28;20207;-44
2023/08/23 08:05:23;;;;;;;0.50;0.50;;;;;;;25.82;69.04;98950.00;4171827;28;20297;-45
2023/08/23 08:07:27;;;;;;;1.85;0.80;;;;;;;26.01;68.37;98953.22;4167655;28;20295;-45
2023/08/23 08:09:49;;;;;;;0.95;0.80;;;;;;;26.66;66.73;98942.13;4168275;28;20199;-49
2023/08/23 08:11:51;;;;;;;1.13;1.02;;;;;;;26.86;67.17;98946.09;4155260;28;20281;-47
2023/08/23 08:13:53;;;;;;;4.18;0.77;;;;;;;27.02;65.08;98944.25;4150285;28;20227;-46
2023/08/23 08:15:55;;;;;;;1.65;1.23;;;;;;;26.83;64.86;98944.78;4184945;28;20227;-44
2023/08/23 08:17:57;;;;;;;0.80;0.70;;;;;;;26.11;66.16;98951.97;4171750;28;20231;-46
2023/08/23 08:20:08;;;;;;;0.80;0.80;;;;;;;26.11;65.12;98946.34;4168944;28;20204;-48
2023/08/23 08:22:10;;;;;;;1.15;1.05;;;;;;;25.97;64.77;98952.25;4166704;28;20207;-49
2023/08/23 08:24:12;;;;;;;0.60;0.60;;;;;;;26.50;65.06;98966.38;4165715;28;20756;-47
2023/08/23 08:26:14;;;;;;;0.90;0.90;;;;;;;26.74;65.44;98963.72;4169894;28;20649;-45
2023/08/23 08:28:16;;;;;;;10.52;1.65;;;;;;;26.34;62.30;98968.16;4166752;28;20204;-46
2023/08/23 08:30:18;;;;;;;1.33;1.17;;;;;;;27.00;63.36;98969.09;4168335;28;20223;-45
2023/08/23 08:32:20;;;;;;;1.50;0.73;;;;;;;27.43;62.47;98970.28;4166416;28;20215;-46
2023/08/23 08:34:22;;;;;;;1.65;1.38;;;;;;;27.76;59.92;98970.19;4169076;28;20218;-47
2023/08/23 08:36:24;;;;;;;0.68;0.68;;;;;;;27.98;61.41;98976.19;4167968;28;20286;-48
2023/08/23 08:38:26;;;;;;;0.60;0.60;;;;;;;28.07;59.91;98971.28;4168528;28;20771;-47
2023/08/23 08:40:28;;;;;;;1.08;0.98;;;;;;;28.25;58.78;98974.66;4167750;28;20214;-46
2023/08/23 08:42:30;;;;;;;1.15;1.05;;;;;;;27.11;56.16;98962.69;4169502;28;20211;-46
2023/08/23 08:44:32;;;;;;;1.10;1.00;;;;;;;27.16;59.90;98962.50;4166611;28;20358;-45
2023/08/23 08:46:34;;;;;;;0.82;0.82;;;;;;;26.58;59.06;98951.47;4167713;28;20216;-46
2023/08/23 08:48:36;;;;;;;0.63;0.63;;;;;;;25.94;58.62;98952.91;4155607;28;20192;-45
2023/08/23 08:50:37;;;;;;;8.23;0.88;;;;;;;25.59;58.27;98957.03;4172487;28;20212;-45
2023/08/23 08:52:47;;;;;;;0.80;0.80;;;;;;;25.55;58.19;98950.47;4170059;28;20273;-45
2023/08/23 08:54:51;;;;;;;1.40;1.20;;;;;;;25.28;59.88;98952.88;4181533;28;20267;-44
2023/08/23 08:56:53;;;;;;;0.98;0.88;;;;;;;25.42;60.70;98945.91;4182465;28;20323;-46
2023/08/23 08:58:55;;;;;;;1.38;1.05;;;;;;;25.50;60.33;98953.47;4156246;28;20224;-45
2023/08/23 09:00:59;;;;;;;1.13;0.70;;;;;;;25.38;59.87;98950.53;4166107;28;20262;-45
2023/08/23 09:03:01;;;;;;;1.35;1.15;;;;;;;25.92;61.87;98944.00;4178460;28;20529;-49
2023/08/23 09:05:04;;;;;;;0.50;0.50;;;;;;;26.52;60.80;98938.75;4148862;28;20236;-46
2023/08/23 09:07:06;;;;;;;0.63;0.55;;;;;;;27.46;58.91;98944.25;4167949;28;20203;-48
2023/08/23 09:09:08;;;;;;;0.88;0.88;;;;;;;27.49;58.10;98939.94;4167838;28;20788;-45
2023/08/23 09:11:10;;;;;;;1.60;1.02;;;;;;;27.93;57.01;98937.03;4167705;28;20207;-46
2023/08/23 09:13:12;;;;;;;2.13;1.17;;;;;;;28.46;56.44;98939.53;4183849;28;20582;-46
2023/08/23 09:15:19;;;;;;;0.50;0.50;;;;;;;28.87;55.25;98941.97;4168629;28;20227;-46
2023/08/23 09:17:25;;;;;;;0.93;0.75;;;;;;;29.25;54.06;98939.44;4170993;28;20210;-46
2023/08/23 09:19:28;;;;;;;0.77;0.50;;;;;;;30.03;53.40;98937.44;4185908;28;20210;-45
2023/08/23 09:21:30;;;;;;;0.45;0.45;;;;;;;29.83;50.62;98938.56;4184388;28;20246;-45
2023/08/23 09:23:34;;;;;;;0.40;0.40;;;;;;;30.13;52.26;98942.56;4171284;28;20204;-47
2023/08/23 09:25:36;;;;;;;0.88;0.40;;;;;;;30.44;52.16;98941.66;4168711;28;20232;-50
2023/08/23 09:27:38;;;;;;;0.47;0.40;;;;;;;29.66;50.57;98933.28;4165585;28;20635;-46
2023/08/23 09:29:40;;;;;;;0.50;0.50;;;;;;;30.16;50.05;98924.88;4169342;28;20199;-45
2023/08/23 09:31:42;;;;;;;0.90;0.88;;;;;;;29.08;49.55;98928.50;4163686;28;20208;-45
2023/08/23 09:33:45;;;;;;;0.57;0.57;;;;;;;28.52;51.04;98932.47;4169766;28;21529;-48
2023/08/23 09:35:48;;;;;;;18.33;1.85;;;;;;;28.98;52.88;98922.56;4168585;28;20228;-44
2023/08/23 09:37:50;;;;;;;1.75;0.88;;;;;;;29.55;51.56;98920.94;4166291;28;20215;-49